createdAt,value
2023-04-18T00:00:30.287Z,96603.28
2023-04-18T00:03:17.841Z,96604.53
2023-04-18T00:06:05.317Z,96603.16
2023-04-18T00:08:52.892Z,96609.66
2023-04-18T00:11:40.248Z,96603.03
2023-04-18T00:14:27.569Z,96601.66
2023-04-18T00:17:14.947Z,96600.06
2023-04-18T00:20:02.274Z,96597.69
2023-04-18T00:22:49.615Z,96587.66
2023-04-18T00:25:36.928Z,96591.84
2023-04-18T00:28:24.513Z,96593.13
2023-04-18T00:31:11.902Z,96589.91
2023-04-18T00:33:59.356Z,96587.50
2023-04-18T00:36:46.692Z,96596.38
2023-04-18T00:39:34.175Z,96595.81
2023-04-18T00:42:21.489Z,96595.00
2023-04-18T00:45:08.865Z,96602.88
2023-04-18T00:47:56.197Z,96599.69
2023-04-18T00:50:43.618Z,96599.69
2023-04-18T00:53:30.975Z,96595.47
2023-04-18T00:56:18.343Z,96599.13
2023-04-18T00:59:05.686Z,96599.13
2023-04-18T01:01:53.362Z,96605.16
2023-04-18T01:04:40.920Z,96593.88
2023-04-18T01:07:28.350Z,96600.16
2023-04-18T01:10:15.671Z,96598.31
2023-04-18T01:13:03.059Z,96597.53
2023-04-18T01:15:50.396Z,96588.06
2023-04-18T01:18:37.798Z,96587.28
2023-04-18T01:21:25.173Z,96592.50
2023-04-18T01:24:12.742Z,96591.47
2023-04-18T01:27:00.218Z,96589.88
2023-04-18T01:29:47.552Z,96588.06
2023-04-18T01:32:34.901Z,96593.31
2023-04-18T01:35:22.238Z,96596.97
2023-04-18T01:38:09.593Z,96596.97
2023-04-18T01:40:56.977Z,96601.38
2023-04-18T01:43:44.291Z,96594.34
2023-04-18T01:46:31.685Z,96597.97
2023-04-18T01:49:19.021Z,96596.16
2023-04-18T01:52:06.356Z,96590.09
2023-04-18T01:54:53.681Z,96587.72
2023-04-18T01:57:41.054Z,96586.69
2023-04-18T02:00:28.558Z,96588.75
2023-04-18T02:03:15.997Z,96585.31
2023-04-18T02:06:03.412Z,96580.06
2023-04-18T02:08:50.833Z,96584.50
2023-04-18T02:11:38.217Z,96587.94
2023-04-18T02:14:25.955Z,96585.56
2023-04-18T02:17:13.273Z,96589.19
2023-04-18T02:20:00.840Z,96588.41
2023-04-18T02:22:48.144Z,96594.66
2023-04-18T02:25:35.482Z,96594.06
2023-04-18T02:28:22.864Z,96596.94
2023-04-18T02:31:10.193Z,96593.50
2023-04-18T02:33:57.484Z,96591.13
2023-04-18T02:36:44.807Z,96592.38
2023-04-18T02:39:32.158Z,96591.78
2023-04-18T02:42:19.495Z,96591.22
2023-04-18T02:45:06.813Z,96589.63
2023-04-18T02:47:56.511Z,96586.44
2023-04-18T02:50:44.180Z,96584.84
2023-04-18T02:53:31.568Z,96587.66
2023-04-18T02:56:18.913Z,96588.72
2023-04-18T02:59:06.251Z,96588.13
2023-04-18T03:01:53.636Z,96578.91
2023-04-18T03:04:41.072Z,96585.16
2023-04-18T03:07:28.370Z,96580.34
2023-04-18T03:10:15.696Z,96588.47
2023-04-18T03:13:03.015Z,96585.28
2023-04-18T03:15:50.463Z,96594.94
2023-04-18T03:18:37.786Z,96590.94
2023-04-18T03:21:25.172Z,96586.16
2023-04-18T03:24:12.582Z,96593.22
2023-04-18T03:27:00.051Z,96586.59
2023-04-18T03:29:47.420Z,96587.84
2023-04-18T03:32:34.768Z,96585.47
2023-04-18T03:35:22.118Z,96585.69
2023-04-18T03:38:09.498Z,96583.28
2023-04-18T03:40:56.829Z,96584.53
2023-04-18T03:43:44.160Z,96586.56
2023-04-18T03:46:31.548Z,96584.97
2023-04-18T03:49:18.911Z,96587.25
2023-04-18T03:52:06.241Z,96586.66
2023-04-18T03:54:53.607Z,96590.50
2023-04-18T03:57:41.401Z,96595.19
2023-04-18T04:00:28.869Z,96598.25
2023-04-18T04:03:16.241Z,96599.25
2023-04-18T04:06:03.673Z,96590.03
2023-04-18T04:08:51.033Z,96596.31
2023-04-18T04:11:38.423Z,96592.88
2023-04-18T04:14:25.744Z,96599.34
2023-04-18T04:17:13.086Z,96596.75
2023-04-18T04:20:00.371Z,96603.81
2023-04-18T04:22:47.692Z,96610.03
2023-04-18T04:25:35.040Z,96612.66
2023-04-18T04:28:22.387Z,96600.59
2023-04-18T04:31:09.740Z,96605.25
2023-04-18T04:33:57.090Z,96608.09
2023-04-18T04:36:44.460Z,96603.88
2023-04-18T04:39:31.858Z,96607.53
2023-04-18T04:42:19.204Z,96610.34
2023-04-18T04:45:06.550Z,96612.38
2023-04-18T04:47:53.984Z,96604.75
2023-04-18T04:50:41.397Z,96616.25
2023-04-18T04:53:28.703Z,96618.09
2023-04-18T04:56:16.061Z,96620.91
2023-04-18T04:59:03.363Z,96621.91
2023-04-18T05:01:50.762Z,96619.31
2023-04-18T05:04:38.207Z,96613.47
2023-04-18T05:07:25.664Z,96620.53
2023-04-18T05:10:13.016Z,96612.69
2023-04-18T05:13:00.337Z,96627.38
2023-04-18T05:15:47.665Z,96626.34
2023-04-18T05:18:35.154Z,96627.16
2023-04-18T05:21:22.487Z,96628.75
2023-04-18T05:24:09.807Z,96632.97
2023-04-18T05:26:57.143Z,96632.75
2023-04-18T05:29:44.478Z,96639.59
2023-04-18T05:32:31.914Z,96640.19
2023-04-18T05:35:19.486Z,96637.09
2023-04-18T05:38:06.830Z,96630.63
2023-04-18T05:40:56.475Z,96631.19
2023-04-18T05:43:46.366Z,96627.38
2023-04-18T05:46:41.884Z,96627.72
2023-04-18T05:49:29.439Z,96634.34
2023-04-18T05:52:16.895Z,96632.09
2023-04-18T05:55:04.285Z,96630.81
2023-04-18T05:57:51.702Z,96638.00
2023-04-18T06:00:39.042Z,96634.97
2023-04-18T06:03:26.618Z,96643.19
2023-04-18T06:06:14.067Z,96646.13
2023-04-18T06:09:01.418Z,96647.53
2023-04-18T06:11:48.767Z,96647.91
2023-04-18T06:14:36.116Z,96652.69
2023-04-18T06:17:23.450Z,96658.28
2023-04-18T06:20:10.860Z,96657.38
2023-04-18T06:22:58.187Z,96658.75
2023-04-18T06:25:45.508Z,96658.91
2023-04-18T06:28:32.816Z,96662.66
2023-04-18T06:31:20.190Z,96661.19
2023-04-18T06:34:07.537Z,96664.75
2023-04-18T06:36:59.071Z,96663.28
2023-04-18T06:39:46.411Z,96661.59
2023-04-18T06:42:33.813Z,96662.72
2023-04-18T06:45:21.138Z,96670.69
2023-04-18T06:48:08.578Z,96674.47
2023-04-18T06:50:55.893Z,96668.31
2023-04-18T06:53:43.227Z,96676.13
2023-04-18T06:56:30.553Z,96678.84
2023-04-18T06:59:17.896Z,96673.75
2023-04-18T07:02:05.290Z,96686.75
2023-04-18T07:04:52.883Z,96678.22
2023-04-18T07:07:40.249Z,96678.09
2023-04-18T07:10:27.653Z,96686.09
2023-04-18T07:13:15.008Z,96680.16
2023-04-18T07:16:02.344Z,96681.06
2023-04-18T07:18:49.692Z,96679.59
2023-04-18T07:21:37.036Z,96684.34
2023-04-18T07:24:24.343Z,96693.38
2023-04-18T07:27:11.683Z,96693.72
2023-04-18T07:29:58.968Z,96700.94
2023-04-18T07:32:46.377Z,96696.00
2023-04-18T07:35:33.768Z,96690.28
2023-04-18T07:38:21.091Z,96690.38
2023-04-18T07:41:08.444Z,96686.53
2023-04-18T07:43:55.843Z,96680.78
2023-04-18T07:46:43.232Z,96683.97
2023-04-18T07:49:30.605Z,96690.38
2023-04-18T07:52:17.960Z,96685.69
2023-04-18T07:55:05.279Z,96687.84
2023-04-18T07:57:53.722Z,96680.53
2023-04-18T08:00:41.121Z,96685.34
2023-04-18T08:03:28.588Z,96684.31
2023-04-18T08:06:16.122Z,96686.22
2023-04-18T08:09:03.449Z,96684.97
2023-04-18T08:11:50.782Z,96686.13
2023-04-18T08:14:38.134Z,96693.63
2023-04-18T08:17:25.505Z,96689.53
2023-04-18T08:20:12.836Z,96695.13
2023-04-18T08:23:06.185Z,96682.63
2023-04-18T08:25:55.109Z,96680.44
2023-04-18T08:28:44.138Z,96687.16
2023-04-18T08:31:33.432Z,96689.97
2023-04-18T08:34:20.861Z,96701.44
2023-04-18T08:37:08.143Z,96705.06
2023-04-18T08:39:55.481Z,96700.53
2023-04-18T08:42:42.801Z,96709.16
2023-04-18T08:45:30.128Z,96713.28
2023-04-18T08:48:17.461Z,96714.03
2023-04-18T08:51:04.838Z,96712.13
2023-04-18T08:53:52.171Z,96714.41
2023-04-18T08:56:39.886Z,96715.13
2023-04-18T08:59:27.221Z,96718.47
2023-04-18T09:02:14.616Z,96720.44
2023-04-18T09:05:02.034Z,96725.59
2023-04-18T09:07:49.408Z,96732.03
2023-04-18T09:10:36.731Z,96723.44
2023-04-18T09:13:24.611Z,96724.38
2023-04-18T09:16:11.965Z,96732.41
2023-04-18T09:19:00.442Z,96722.22
2023-04-18T09:21:47.753Z,96728.91
2023-04-18T09:24:35.450Z,96719.75
2023-04-18T09:27:22.761Z,96717.47
2023-04-18T09:30:10.073Z,96721.50
2023-04-18T09:32:57.998Z,96723.94
2023-04-18T09:35:45.374Z,96713.72
2023-04-18T09:38:32.704Z,96720.41
2023-04-18T09:41:21.534Z,96718.88
2023-04-18T09:44:10.286Z,96721.31
2023-04-18T09:46:59.805Z,96722.44
2023-04-18T09:49:47.208Z,96732.00
2023-04-18T09:52:34.540Z,96729.94
2023-04-18T09:55:21.880Z,96726.31
2023-04-18T09:58:09.362Z,96723.72
2023-04-18T10:00:56.685Z,96721.06
2023-04-18T10:03:44.061Z,96730.38
2023-04-18T10:06:31.458Z,96721.97
2023-04-18T10:09:18.751Z,96728.88
2023-04-18T10:12:06.057Z,96728.09
2023-04-18T10:14:53.429Z,96726.03
2023-04-18T10:17:46.815Z,96729.22
2023-04-18T10:20:46.430Z,96720.81
2023-04-18T10:23:33.738Z,96728.25
2023-04-18T10:26:21.119Z,96720.88
2023-04-18T10:29:08.451Z,96720.09
2023-04-18T10:31:55.941Z,96718.56
2023-04-18T10:34:43.646Z,96716.50
2023-04-18T10:37:30.983Z,96714.97
2023-04-18T10:40:18.481Z,96714.72
2023-04-18T10:43:05.830Z,96718.94
2023-04-18T10:45:53.163Z,96718.19
2023-04-18T10:48:40.509Z,96726.41
2023-04-18T10:51:27.845Z,96713.16
2023-04-18T10:54:15.394Z,96720.06
2023-04-18T10:57:02.970Z,96724.59
2023-04-18T10:59:50.334Z,96717.66
2023-04-18T11:02:37.842Z,96725.38
2023-04-18T11:05:25.349Z,96725.34
2023-04-18T11:08:12.664Z,96721.63
2023-04-18T11:11:00.035Z,96711.56
2023-04-18T11:13:48.430Z,96699.63
2023-04-18T11:16:36.022Z,96704.38
2023-04-18T11:19:23.502Z,96706.75
2023-04-18T11:22:10.952Z,96705.72
2023-04-18T11:24:58.266Z,96706.25
2023-04-18T11:27:46.710Z,96705.16
2023-04-18T11:30:34.043Z,96706.75
2023-04-18T11:33:21.506Z,96707.53
2023-04-18T11:36:09.059Z,96709.13
2023-04-18T11:38:56.464Z,96706.22
2023-04-18T11:41:43.923Z,96707.03
2023-04-18T11:44:31.279Z,96703.03
2023-04-18T11:47:18.653Z,96694.81
2023-04-18T11:50:07.441Z,96702.22
2023-04-18T11:52:54.783Z,96701.16
2023-04-18T11:55:42.141Z,96693.72
2023-04-18T11:58:29.482Z,96693.16
2023-04-18T12:01:16.870Z,96694.22
2023-04-18T12:04:04.333Z,96688.66
2023-04-18T12:06:51.845Z,96692.59
2023-04-18T12:09:39.197Z,96694.47
2023-04-18T12:12:26.513Z,96696.56
2023-04-18T12:15:13.865Z,96697.09
2023-04-18T12:18:01.436Z,96691.50
2023-04-18T12:20:48.839Z,96689.91
2023-04-18T12:23:36.186Z,96699.19
2023-04-18T12:26:23.541Z,96690.72
2023-04-18T12:29:11.056Z,96690.44
2023-04-18T12:31:58.526Z,96694.41
2023-04-18T12:34:46.474Z,96692.00
2023-04-18T12:37:34.164Z,96687.22
2023-04-18T12:40:21.601Z,96685.63
2023-04-18T12:43:09.005Z,96686.44
2023-04-18T12:45:56.376Z,96687.72
2023-04-18T12:48:43.779Z,96683.22
2023-04-18T12:51:31.132Z,96692.78
2023-04-18T12:54:18.445Z,96686.66
2023-04-18T12:57:05.775Z,96693.56
2023-04-18T12:59:53.169Z,96677.63
2023-04-18T13:02:41.197Z,96684.50
2023-04-18T13:05:31.740Z,96685.31
2023-04-18T13:08:20.708Z,96696.22
2023-04-18T13:11:08.104Z,96684.00
2023-04-18T13:13:55.482Z,96673.63
2023-04-18T13:16:43.980Z,96672.56
2023-04-18T13:19:31.529Z,96685.84
2023-04-18T13:22:18.918Z,96665.41
2023-04-18T13:25:06.338Z,96665.94
2023-04-18T13:27:53.657Z,96672.84
2023-04-18T13:30:41.260Z,96676.03
2023-04-18T13:33:28.651Z,96675.25
2023-04-18T13:36:16.014Z,96673.94
2023-04-18T13:39:03.802Z,96668.13
2023-04-18T13:41:51.133Z,96666.25
2023-04-18T13:44:38.552Z,96666.78
2023-04-18T13:47:25.908Z,96669.44
2023-04-18T13:50:13.310Z,96676.88
2023-04-18T13:53:00.641Z,96680.34
2023-04-18T13:55:48.034Z,96670.53
2023-04-18T13:58:35.502Z,96681.44
2023-04-18T14:01:22.977Z,96675.31
2023-04-18T14:04:10.722Z,96682.72
2023-04-18T14:06:58.234Z,96681.94
2023-04-18T14:09:45.603Z,96681.16
2023-04-18T14:12:32.951Z,96685.69
2023-04-18T14:15:20.246Z,96677.41
2023-04-18T14:18:07.657Z,96689.38
2023-04-18T14:20:57.222Z,96699.47
2023-04-18T14:23:44.526Z,96688.84
2023-04-18T14:26:31.868Z,96685.16
2023-04-18T14:29:19.300Z,96696.81
2023-04-18T14:32:06.893Z,96692.28
2023-04-18T14:34:54.317Z,96687.00
2023-04-18T14:37:41.687Z,96685.69
2023-04-18T14:40:30.857Z,96689.38
2023-04-18T14:43:20.003Z,96691.81
2023-04-18T14:46:07.327Z,96695.00
2023-04-18T14:48:54.648Z,96687.59
2023-04-18T14:51:41.994Z,96695.28
2023-04-18T14:54:31.561Z,96692.91
2023-04-18T14:57:19.934Z,96695.84
2023-04-18T15:00:07.294Z,96687.66
2023-04-18T15:02:54.867Z,96687.13
2023-04-18T15:05:42.307Z,96691.91
2023-04-18T15:08:31.354Z,96696.69
2023-04-18T15:11:19.960Z,96692.69
2023-04-18T15:14:07.687Z,96693.50
2023-04-18T15:16:55.068Z,96696.72
2023-04-18T15:19:42.584Z,96691.94
2023-04-18T15:22:29.949Z,96699.63
2023-04-18T15:25:17.341Z,96698.56
2023-04-18T15:28:04.675Z,96696.72
2023-04-18T15:30:52.013Z,96694.09
2023-04-18T15:33:39.366Z,96695.94
2023-04-18T15:36:26.693Z,96706.31
2023-04-18T15:39:14.045Z,96700.22
2023-04-18T15:42:01.516Z,96706.53
2023-04-18T15:44:48.879Z,96711.84
2023-04-18T15:47:36.210Z,96707.84
2023-04-18T15:50:23.564Z,96712.34
2023-04-18T15:53:10.929Z,96708.41
2023-04-18T15:55:58.236Z,96704.13
2023-04-18T15:58:45.566Z,96719.25
2023-04-18T16:01:33.234Z,96721.88
2023-04-18T16:04:20.693Z,96725.56
2023-04-18T16:07:08.113Z,96726.38
2023-04-18T16:09:55.488Z,96726.88
2023-04-18T16:12:42.857Z,96728.72
2023-04-18T16:15:30.350Z,96737.41
2023-04-18T16:18:17.801Z,96733.44
2023-04-18T16:21:05.149Z,96736.88
2023-04-18T16:23:52.504Z,96733.66
2023-04-18T16:26:39.839Z,96738.91
2023-04-18T16:29:27.198Z,96739.16
2023-04-18T16:32:14.529Z,96734.63
2023-04-18T16:35:01.898Z,96743.91
2023-04-18T16:37:49.261Z,96743.66
2023-04-18T16:40:36.654Z,96741.84
2023-04-18T16:43:23.957Z,96748.78
2023-04-18T16:46:11.315Z,96741.66
2023-04-18T16:48:58.619Z,96744.09
2023-04-18T16:51:45.978Z,96743.84
2023-04-18T16:54:33.288Z,96743.84
2023-04-18T16:57:20.696Z,96747.31
2023-04-18T17:00:08.031Z,96751.06
2023-04-18T17:02:55.494Z,96753.19
2023-04-18T17:05:42.949Z,96752.63
2023-04-18T17:08:30.271Z,96759.31
2023-04-18T17:11:17.591Z,96763.00
2023-04-18T17:14:04.918Z,96759.00
2023-04-18T17:16:53.773Z,96758.22
2023-04-18T17:19:41.269Z,96765.34
2023-04-18T17:22:28.598Z,96761.63
2023-04-18T17:25:15.903Z,96761.38
2023-04-18T17:28:03.299Z,96761.09
2023-04-18T17:30:50.647Z,96767.16
2023-04-18T17:33:38.009Z,96765.56
2023-04-18T17:36:25.300Z,96764.78
2023-04-18T17:39:12.823Z,96765.31
2023-04-18T17:42:00.308Z,96768.75
2023-04-18T17:44:47.755Z,96763.69
2023-04-18T17:47:35.156Z,96779.09
2023-04-18T17:50:22.541Z,96772.72
2023-04-18T17:53:09.838Z,96767.13
2023-04-18T17:55:57.236Z,96778.28
2023-04-18T17:58:44.540Z,96782.25
2023-04-18T18:01:31.942Z,96775.09
2023-04-18T18:04:19.527Z,96775.09
2023-04-18T18:07:07.075Z,96787.81
2023-04-18T18:09:54.468Z,96782.50
2023-04-18T18:12:41.801Z,96786.75
2023-04-18T18:15:29.137Z,96789.41
2023-04-18T18:18:16.482Z,96784.09
2023-04-18T18:21:03.832Z,96798.16
2023-04-18T18:23:51.230Z,96793.16
2023-04-18T18:26:38.592Z,96802.94
2023-04-18T18:29:25.950Z,96799.75
2023-04-18T18:32:13.300Z,96802.41
2023-04-18T18:35:00.634Z,96810.66
2023-04-18T18:37:47.976Z,96813.84
2023-04-18T18:40:35.374Z,96809.88
2023-04-18T18:43:22.746Z,96810.66
2023-04-18T18:46:10.143Z,96812.00
2023-04-18T18:48:57.517Z,96816.50
2023-04-18T18:51:44.893Z,96818.09
2023-04-18T18:54:32.213Z,96825.25
2023-04-18T18:57:19.555Z,96827.13
2023-04-18T19:00:06.881Z,96820.22
2023-04-18T19:02:54.321Z,96818.63
2023-04-18T19:05:41.760Z,96820.50
2023-04-18T19:08:29.086Z,96834.03
2023-04-18T19:11:16.381Z,96830.84
2023-04-18T19:14:03.689Z,96836.16
2023-04-18T19:16:51.009Z,96831.88
2023-04-18T19:19:38.316Z,96837.19
2023-04-18T19:22:25.668Z,96837.47
2023-04-18T19:25:13.030Z,96834.00
2023-04-18T19:28:00.358Z,96841.19
2023-04-18T19:30:47.784Z,96835.34
2023-04-18T19:33:35.108Z,96838.25
2023-04-18T19:36:22.590Z,96845.44
2023-04-18T19:39:09.961Z,96843.03
2023-04-18T19:41:57.603Z,96835.34
2023-04-18T19:44:44.958Z,96832.97
2023-04-18T19:47:32.362Z,96833.22
2023-04-18T19:50:19.727Z,96832.97
2023-04-18T19:53:07.090Z,96830.31
2023-04-18T19:55:54.475Z,96834.03
2023-04-18T19:58:41.810Z,96837.19
2023-04-18T20:01:29.182Z,96844.56
2023-04-18T20:04:16.697Z,96836.00
2023-04-18T20:07:04.235Z,96838.34
2023-04-18T20:09:51.596Z,96847.00
2023-04-18T20:12:38.965Z,96841.03
2023-04-18T20:15:26.318Z,96838.84
2023-04-18T20:18:13.663Z,96833.44
2023-04-18T20:21:01.002Z,96832.78
2023-04-18T20:23:48.331Z,96838.00
2023-04-18T20:26:35.664Z,96831.25
2023-04-18T20:29:22.982Z,96837.75
2023-04-18T20:32:10.352Z,96831.78
2023-04-18T20:34:57.679Z,96830.38
2023-04-18T20:37:45.019Z,96831.31
2023-04-18T20:40:32.326Z,96830.41
2023-04-18T20:43:19.652Z,96827.66
2023-04-18T20:46:07.112Z,96828.09
2023-04-18T20:48:54.672Z,96823.50
2023-04-18T20:51:42.052Z,96830.00
2023-04-18T20:54:29.438Z,96832.28
2023-04-18T20:57:16.853Z,96822.97
2023-04-18T21:00:04.186Z,96829.44
2023-04-18T21:02:51.613Z,96823.53
2023-04-18T21:05:39.165Z,96825.28
2023-04-18T21:08:26.530Z,96818.59
2023-04-18T21:11:13.872Z,96815.91
2023-04-18T21:14:01.189Z,96820.53
2023-04-18T21:16:48.524Z,96824.13
2023-04-18T21:19:35.847Z,96812.72
2023-04-18T21:22:23.332Z,96827.41
2023-04-18T21:25:10.653Z,96827.34
2023-04-18T21:27:58.580Z,96828.06
2023-04-18T21:30:45.890Z,96828.00
2023-04-18T21:33:33.268Z,96827.13
2023-04-18T21:36:20.605Z,96828.06
2023-04-18T21:39:07.913Z,96831.66
2023-04-18T21:41:55.236Z,96822.88
2023-04-18T21:44:42.545Z,96825.19
2023-04-18T21:47:29.959Z,96828.53
2023-04-18T21:50:17.395Z,96830.84
2023-04-18T21:53:04.718Z,96827.88
2023-04-18T21:55:52.054Z,96822.25
2023-04-18T21:58:39.406Z,96829.84
2023-04-18T22:01:26.835Z,96822.97
2023-04-18T22:04:14.619Z,96822.66
2023-04-18T22:07:02.476Z,96820.50
2023-04-18T22:09:49.879Z,96815.47
2023-04-18T22:12:37.199Z,96821.19
2023-04-18T22:15:24.517Z,96811.16
2023-04-18T22:18:11.879Z,96815.06
2023-04-18T22:20:59.198Z,96805.78
2023-04-18T22:23:46.540Z,96805.22
2023-04-18T22:26:33.838Z,96804.44
2023-04-18T22:29:21.153Z,96803.88
2023-04-18T22:32:08.490Z,96804.34
2023-04-18T22:34:55.802Z,96808.03
2023-04-18T22:37:43.129Z,96807.47
2023-04-18T22:40:30.459Z,96800.84
2023-04-18T22:43:17.774Z,96797.38
2023-04-18T22:46:05.649Z,96801.84
2023-04-18T22:48:53.004Z,96800.28
2023-04-18T22:51:40.356Z,96803.94
2023-04-18T22:54:27.655Z,96798.09
2023-04-18T22:57:14.992Z,96800.97
2023-04-18T23:00:02.375Z,96805.44
2023-04-18T23:02:49.890Z,96797.78
2023-04-18T23:05:37.266Z,96795.38
2023-04-18T23:08:24.657Z,96800.88
2023-04-18T23:11:12.017Z,96799.28
2023-04-18T23:13:59.320Z,96790.81
2023-04-18T23:16:46.630Z,96810.28
2023-04-18T23:19:34.006Z,96788.69
2023-04-18T23:22:21.367Z,96795.19
2023-04-18T23:25:08.694Z,96789.34
2023-04-18T23:27:56.033Z,96782.75
2023-04-18T23:30:43.323Z,96788.00
2023-04-18T23:33:30.637Z,96784.59
2023-04-18T23:36:17.935Z,96787.22
2023-04-18T23:39:05.278Z,96786.66
2023-04-18T23:41:52.671Z,96786.09
2023-04-18T23:44:39.985Z,96789.72
2023-04-18T23:47:27.393Z,96780.00
2023-04-18T23:50:14.760Z,96787.34
2023-04-18T23:53:02.062Z,96783.13
2023-04-18T23:55:50.743Z,96774.66
2023-04-18T23:58:38.440Z,96778.31
